Oberpullendorf, Austria
Current Conditions -  °F | °C
As of 5:50 PM on Thursday 23 Oct 2014 (Local Time) from LOWW Reporting Station
Light Rain Light Rain  
Wind Chill: 38°   Ceiling: 1700
Heat Index: 46°   Visibility: 6mi
Dew Point: 43°   Wind: 24mph
Humidity: 87%   Direction: 350°N
Pressure: 29.94"   Gusts: NA
Location:  47.5°N, 16.5°E
Report Text: LOWW 231550Z 35021KT 9999 -RA FEW016 BKN017 BKN020 08/06 Q1014 NOSIG
Loading
Personal Weather Stations






























Interactive Weather Map
Tropical Storm Tracking
New forecast layout! Learn more

10-Day Weather Forecast

Advertisements
Track Severe Weather on mobile